Agios Nikolaos IV — 9HA2380 — position and weather

sailwx.info

Track history (hours):
 
Tides and Currents Weather Stations Pressure Air Temp Water Temp Dewpoint Dewpoint Depression Visibility Wind Speed Wind Dir Waves Ship Positions

Agios Nikolaos IV

Last reported at 2018-Jan-23 09:50 UTC. Time now 2018-Jan-23 14:06 UTC.
Position N 37°58' E 024°39'.

Length 185 m; draft 7.5 m.

Type: Ship. MMSI: 248480000.

Date/timePositionNaut miles runAvg speedWind from/ knotsBaromVisibWave heightAir tempDewpointWater temp
2018-Jan-23 09:50N 37°58' E 024°39'411.6
2018-Jan-23 09:29N 37°54' E 024°36'611.5
2018-Jan-23 09:00N 37°50' E 024°32'612.3
2018-Jan-23 08:30N 37°46' E 024°26'712.4
2018-Jan-23 07:59N 37°43' E 024°19'611.8
2018-Jan-23 07:29N 37°38' E 024°14'511.0
2018-Jan-23 07:00N 37°34' E 024°11'612.6
2018-Jan-23 06:30N 37°28' E 024°07'612.4
2018-Jan-23 06:00N 37°22' E 024°04'612.5
2018-Jan-23 05:30N 37°17' E 024°01'612.5
2018-Jan-23 05:00N 37°11' E 023°57'612.5
2018-Jan-23 04:30N 37°06' E 023°54'612.8
2018-Jan-23 04:00N 36°60' E 023°51'612.8
2018-Jan-23 03:30N 36°54' E 023°48'1612.5
2018-Jan-23 02:15N 36°40' E 023°38'  
Track history (hours):
 
Tides and Currents Weather Stations Pressure Air Temp Water Temp Dewpoint Dewpoint Depression Visibility Wind Speed Wind Dir Waves Ship Positions

Agios Nikolaos IV

Last reported at 2018-Jan-23 09:50 UTC. Time now 2018-Jan-23 14:06 UTC.
Position N 37°58' E 024°39'.

Length 185 m; draft 7.5 m.

Type: Ship. MMSI: 248480000.

Date/timePositionNaut miles runAvg speedWind from/ knotsBaromVisibWave heightAir tempDewpointWater temp
2018-Jan-23 09:50N 37°58' E 024°39'411.6
2018-Jan-23 09:29N 37°54' E 024°36'611.5
2018-Jan-23 09:00N 37°50' E 024°32'612.3
2018-Jan-23 08:30N 37°46' E 024°26'712.4
2018-Jan-23 07:59N 37°43' E 024°19'611.8
2018-Jan-23 07:29N 37°38' E 024°14'511.0
2018-Jan-23 07:00N 37°34' E 024°11'612.6
2018-Jan-23 06:30N 37°28' E 024°07'612.4
2018-Jan-23 06:00N 37°22' E 024°04'612.5
2018-Jan-23 05:30N 37°17' E 024°01'612.5
2018-Jan-23 05:00N 37°11' E 023°57'612.5
2018-Jan-23 04:30N 37°06' E 023°54'612.8
2018-Jan-23 04:00N 36°60' E 023°51'612.8
2018-Jan-23 03:30N 36°54' E 023°48'1612.5
2018-Jan-23 02:15N 36°40' E 023°38'  

Dump ship's entire track history